Time;durP1;ratioP1;P1;durP2;ratioP2;P2;SDS_P1;SDS_P2;PMS_P1;PMS_P2;Temp;Humidity;BMP_temperature;BMP_pressure;BME280_temperature;BME280_humidity;BME280_pressure;Samples;Min_cycle;Max_cycle;Signal;HPM_P1;HPM_P2
2023/05/04 00:02:16;;;;;;;9.05;3.85;;;7.60;99.90;;;;;;5029294;28;20053;-60
2023/05/04 00:04:47;;;;;;;6.90;4.13;;;7.70;99.90;;;;;;5011360;28;20046;-60
2023/05/04 00:07:18;;;;;;;6.00;4.10;;;7.60;99.90;;;;;;5010726;28;20057;-60
2023/05/04 00:09:46;;;;;;;7.57;4.07;;;7.60;99.90;;;;;;5020664;28;20057;-61
2023/05/04 00:12:14;;;;;;;8.07;3.90;;;7.60;99.90;;;;;;5028770;28;20050;-61
2023/05/04 00:14:41;;;;;;;11.52;4.22;;;7.60;99.90;;;;;;5015442;28;20054;-60
2023/05/04 00:17:09;;;;;;;9.27;4.20;;;7.50;99.90;;;;;;5023018;28;20045;-60
2023/05/04 00:19:39;;;;;;;9.50;4.00;;;7.50;99.90;;;;;;5029834;28;20060;-60
2023/05/04 00:22:07;;;;;;;10.70;4.05;;;7.50;99.90;;;;;;5021415;28;20049;-59
2023/05/04 00:24:35;;;;;;;10.98;4.15;;;7.40;99.90;;;;;;5009680;28;20488;-60
2023/05/04 00:27:03;;;;;;;5.60;3.75;;;7.40;99.90;;;;;;5010180;28;20050;-62
2023/05/04 00:29:31;;;;;;;9.15;3.47;;;7.40;99.90;;;;;;5027341;28;20049;-61
2023/05/04 00:31:59;;;;;;;14.45;4.05;;;7.40;99.90;;;;;;5016172;28;20060;-60
2023/05/04 00:34:28;;;;;;;6.43;3.78;;;7.30;99.90;;;;;;5019352;28;20165;-61
2023/05/04 00:36:56;;;;;;;7.40;3.92;;;7.30;99.90;;;;;;5017083;28;20045;-60
2023/05/04 00:39:23;;;;;;;11.07;4.68;;;7.30;99.90;;;;;;5011837;28;20037;-60
2023/05/04 00:41:51;;;;;;;11.50;3.85;;;7.30;99.90;;;;;;5016150;28;20066;-59
2023/05/04 00:44:22;;;;;;;8.25;3.90;;;7.30;99.90;;;;;;5023755;28;20073;-60
2023/05/04 00:46:53;;;;;;;6.78;4.10;;;7.20;99.90;;;;;;5029759;28;20661;-60
2023/05/04 00:49:22;;;;;;;15.45;5.13;;;7.10;99.90;;;;;;5002212;28;20060;-59
2023/05/04 00:51:51;;;;;;;4.82;3.15;;;7.10;99.90;;;;;;5005507;28;20050;-61
2023/05/04 00:54:19;;;;;;;10.65;3.97;;;7.10;99.90;;;;;;4999986;28;20045;-61
2023/05/04 00:56:47;;;;;;;7.70;4.53;;;7.10;99.90;;;;;;5011959;28;20049;-62
2023/05/04 00:59:14;;;;;;;6.55;4.18;;;7.10;99.90;;;;;;5029359;28;20385;-60
2023/05/04 01:01:42;;;;;;;10.27;4.85;;;7.00;99.90;;;;;;5010572;28;20049;-61
2023/05/04 01:04:10;;;;;;;9.23;3.80;;;7.00;99.90;;;;;;5022681;28;20048;-61
2023/05/04 01:07:05;;;;;;;8.32;4.63;;;7.00;99.90;;;;;;5006814;28;20485;-60
2023/05/04 01:09:55;;;;;;;9.45;4.15;;;7.00;99.90;;;;;;5009065;28;20053;-60
2023/05/04 01:12:30;;;;;;;11.43;4.65;;;7.00;99.90;;;;;;4992133;28;20046;-60
2023/05/04 01:14:59;;;;;;;12.55;4.28;;;7.00;99.90;;;;;;5009516;28;20046;-59
2023/05/04 01:17:28;;;;;;;9.50;4.40;;;7.00;99.90;;;;;;5022542;28;20639;-60
2023/05/04 01:19:56;;;;;;;9.48;4.80;;;7.00;99.90;;;;;;5024870;28;20046;-61
2023/05/04 01:22:25;;;;;;;7.07;4.03;;;6.90;99.90;;;;;;5010539;28;20056;-61
2023/05/04 01:24:54;;;;;;;9.90;4.27;;;7.00;99.90;;;;;;5008540;28;20485;-60
2023/05/04 01:27:48;;;;;;;13.43;4.43;;;7.00;99.90;;;;;;5010022;28;20505;-61
2023/05/04 01:30:30;;;;;;;11.25;4.45;;;6.90;99.90;;;;;;5028235;28;20213;-60
2023/05/04 01:33:00;;;;;;;6.65;3.97;;;6.90;99.90;;;;;;5031327;28;20508;-60
2023/05/04 01:35:28;;;;;;;7.35;4.05;;;6.90;99.90;;;;;;5031617;28;20041;-61
2023/05/04 01:37:56;;;;;;;12.43;4.45;;;6.90;99.90;;;;;;5025820;28;20137;-60
2023/05/04 01:40:24;;;;;;;9.18;4.40;;;6.90;99.90;;;;;;5019295;28;20056;-59
2023/05/04 01:42:51;;;;;;;9.23;4.53;;;6.90;99.90;;;;;;5031804;28;20068;-60
2023/05/04 01:45:19;;;;;;;7.80;4.40;;;6.90;99.90;;;;;;5030611;28;20049;-59
2023/05/04 01:47:47;;;;;;;9.43;4.82;;;6.90;99.90;;;;;;5031328;28;20048;-59
2023/05/04 01:50:15;;;;;;;9.55;4.32;;;6.90;99.90;;;;;;5016296;28;20053;-60
2023/05/04 01:52:43;;;;;;;11.70;4.47;;;6.90;99.90;;;;;;5010777;28;20052;-60
2023/05/04 01:55:10;;;;;;;7.70;4.05;;;6.80;99.90;;;;;;5014464;28;20064;-60
2023/05/04 01:57:38;;;;;;;14.13;5.22;;;6.80;99.90;;;;;;5011321;28;20038;-60
2023/05/04 02:00:06;;;;;;;11.25;4.70;;;6.90;99.90;;;;;;5007270;28;20046;-61
2023/05/04 02:02:44;;;;;;;16.33;4.70;;;6.90;99.90;;;;;;5013710;28;20484;-60
2023/05/04 02:05:16;;;;;;;9.18;5.07;;;6.90;99.90;;;;;;5013993;28;20041;-61
2023/05/04 02:07:44;;;;;;;11.20;5.28;;;6.90;99.90;;;;;;5014294;28;20049;-61
2023/05/04 02:10:11;;;;;;;13.68;6.00;;;6.90;99.90;;;;;;5030503;28;20044;-60
2023/05/04 02:12:41;;;;;;;11.88;4.65;;;6.90;99.90;;;;;;5013757;28;20042;-60
2023/05/04 02:15:10;;;;;;;10.27;4.38;;;6.90;99.90;;;;;;5013733;28;20056;-60
2023/05/04 02:17:37;;;;;;;10.52;4.78;;;7.00;99.90;;;;;;5013690;28;20049;-64
2023/05/04 02:20:06;;;;;;;14.32;4.97;;;7.00;99.90;;;;;;5002919;28;20048;-61
2023/05/04 02:22:36;;;;;;;11.18;4.80;;;7.00;99.90;;;;;;5021742;28;20084;-60
2023/05/04 02:25:05;;;;;;;;;;;6.90;99.90;;;;;;5015099;28;20049;-59
2023/05/04 02:27:32;;;;;;;15.95;5.30;;;7.00;99.90;;;;;;5031519;28;19944;-58
2023/05/04 02:30:00;;;;;;;11.25;5.70;;;7.00;99.90;;;;;;5031643;28;20061;-59
2023/05/04 02:32:30;;;;;;;12.82;4.85;;;7.00;99.90;;;;;;5009904;28;20053;-60
2023/05/04 02:34:58;;;;;;;13.38;5.15;;;7.00;99.90;;;;;;5011703;28;20048;-59
2023/05/04 02:37:28;;;;;;;6.97;4.40;;;7.00;99.90;;;;;;5010458;28;20050;-62
2023/05/04 02:39:55;;;;;;;10.18;4.50;;;7.00;99.90;;;;;;5010189;28;20049;-61
2023/05/04 02:42:23;;;;;;;13.20;5.03;;;7.00;99.90;;;;;;5010254;28;20050;-59
2023/05/04 02:44:51;;;;;;;12.13;4.65;;;7.10;99.90;;;;;;5010204;28;20061;-59
2023/05/04 02:47:18;;;;;;;12.45;5.80;;;7.00;99.90;;;;;;5026511;28;20038;-59
2023/05/04 02:49:46;;;;;;;15.38;5.53;;;7.00;99.90;;;;;;5010550;28;20054;-59
2023/05/04 02:52:14;;;;;;;16.33;4.55;;;7.10;99.90;;;;;;5026758;28;20054;-60
2023/05/04 02:54:41;;;;;;;14.32;5.82;;;7.00;99.90;;;;;;4990647;28;20401;-59
2023/05/04 02:57:09;;;;;;;23.40;5.93;;;7.00;99.90;;;;;;5003468;28;20042;-60
2023/05/04 02:59:37;;;;;;;15.95;6.03;;;7.00;99.90;;;;;;5010488;28;20046;-59
2023/05/04 03:02:05;;;;;;;12.88;5.15;;;7.10;99.90;;;;;;5011228;28;20042;-59
2023/05/04 03:04:33;;;;;;;16.25;5.43;;;7.10;99.90;;;;;;4991895;28;20138;-59
2023/05/04 03:07:03;;;;;;;6.80;4.35;;;7.00;99.90;;;;;;4990482;28;20058;-59
2023/05/04 03:09:33;;;;;;;10.70;4.68;;;;;;;;;;4994302;28;20065;-59
2023/05/04 03:12:04;;;;;;;14.57;5.45;;;7.10;99.90;;;;;;5010713;28;20053;-59
2023/05/04 03:14:33;;;;;;;9.15;5.55;;;7.10;99.90;;;;;;5026229;28;20049;-60
2023/05/04 03:17:04;;;;;;;14.15;5.45;;;7.10;99.90;;;;;;5013688;28;20053;-60
2023/05/04 03:19:32;;;;;;;12.70;5.18;;;7.10;99.90;;;;;;5013656;28;20045;-60
2023/05/04 03:21:59;;;;;;;15.52;5.15;;;7.10;99.90;;;;;;5014353;28;20041;-60
2023/05/04 03:24:27;;;;;;;12.63;5.75;;;7.10;99.90;;;;;;4996829;28;20425;-61
2023/05/04 03:26:55;;;;;;;16.50;5.15;;;7.10;99.90;;;;;;4995011;28;20050;-60
2023/05/04 03:29:23;;;;;;;11.48;5.63;;;7.10;99.90;;;;;;5013128;28;20044;-60
2023/05/04 03:31:52;;;;;;;9.68;4.65;;;7.20;99.90;;;;;;5028900;28;20060;-59
2023/05/04 03:34:20;;;;;;;13.40;5.70;;;7.10;99.90;;;;;;5014236;28;20045;-59
2023/05/04 03:36:52;;;;;;;11.40;4.93;;;7.20;99.90;;;;;;5028983;28;20037;-60
2023/05/04 03:39:20;;;;;;;12.40;5.15;;;7.20;99.90;;;;;;5013253;28;20050;-60
2023/05/04 03:41:48;;;;;;;13.35;6.15;;;7.20;99.90;;;;;;5014604;28;20042;-60
2023/05/04 03:44:16;;;;;;;14.15;5.07;;;7.20;99.90;;;;;;5029630;28;20496;-59
2023/05/04 03:46:44;;;;;;;12.25;4.55;;;7.20;99.90;;;;;;5003177;28;20509;-60
2023/05/04 03:49:13;;;;;;;11.77;5.40;;;7.20;99.90;;;;;;4994585;28;20069;-60
2023/05/04 03:51:41;;;;;;;10.65;5.50;;;7.20;99.90;;;;;;5002004;28;20657;-60
2023/05/04 03:54:08;;;;;;;11.63;6.00;;;7.30;99.90;;;;;;5006791;28;20042;-60
2023/05/04 03:56:37;;;;;;;11.75;5.15;;;7.30;99.90;;;;;;5013984;28;20045;-60
2023/05/04 03:59:04;;;;;;;15.70;6.40;;;7.30;99.90;;;;;;5012035;28;20496;-60
2023/05/04 04:01:34;;;;;;;12.05;5.15;;;7.30;99.90;;;;;;5029043;28;20280;-59
2023/05/04 04:04:02;;;;;;;13.90;5.82;;;7.30;99.90;;;;;;5012690;28;20042;-59
2023/05/04 04:06:31;;;;;;;12.52;5.95;;;7.30;99.90;;;;;;5013101;28;20073;-60
2023/05/04 04:08:59;;;;;;;17.40;5.60;;;7.30;99.90;;;;;;5008295;28;20046;-61
2023/05/04 04:11:26;;;;;;;13.80;6.47;;;7.30;99.90;;;;;;4993067;28;20498;-60
2023/05/04 04:13:55;;;;;;;17.05;6.25;;;7.30;99.90;;;;;;5004219;28;20042;-60
2023/05/04 04:16:22;;;;;;;13.85;5.60;;;7.30;99.90;;;;;;5013965;28;20050;-60
2023/05/04 04:18:50;;;;;;;15.93;6.35;;;7.30;99.90;;;;;;5001629;28;20047;-60
2023/05/04 04:21:17;;;;;;;16.77;6.00;;;7.20;99.90;;;;;;4994173;28;20053;-60
2023/05/04 04:23:45;;;;;;;15.82;6.57;;;7.30;99.90;;;;;;4992851;28;20046;-59
2023/05/04 04:26:13;;;;;;;14.02;5.18;;;7.20;99.90;;;;;;5007748;28;20049;-59
2023/05/04 04:28:40;;;;;;;20.83;6.45;;;7.20;99.90;;;;;;5013737;28;20060;-59
2023/05/04 04:31:08;;;;;;;18.52;6.78;;;7.20;99.90;;;;;;5017239;28;20045;-59
2023/05/04 04:33:35;;;;;;;17.70;7.20;;;7.20;99.90;;;;;;5033151;28;20041;-59
2023/05/04 04:36:03;;;;;;;14.40;6.15;;;7.10;99.90;;;;;;5033416;28;20631;-59
2023/05/04 04:38:31;;;;;;;21.55;7.38;;;7.20;99.90;;;;;;5032715;28;20060;-60
2023/05/04 04:40:58;;;;;;;21.15;7.13;;;7.20;99.90;;;;;;5015268;28;20057;-60
2023/05/04 04:43:26;;;;;;;19.05;7.38;;;7.10;99.90;;;;;;5033216;28;20504;-60
2023/05/04 04:45:53;;;;;;;19.83;7.18;;;7.10;99.90;;;;;;5026026;28;20042;-60
2023/05/04 04:48:24;;;;;;;14.15;7.07;;;7.10;99.90;;;;;;5019162;28;20052;-58
2023/05/04 04:50:52;;;;;;;20.20;7.88;;;7.10;99.90;;;;;;5028964;28;20056;-60
2023/05/04 04:53:20;;;;;;;14.90;6.70;;;7.10;99.90;;;;;;4991734;28;20573;-62
2023/05/04 04:55:47;;;;;;;15.55;7.88;;;7.20;99.90;;;;;;4992083;28;20401;-59
2023/05/04 04:58:15;;;;;;;19.63;7.75;;;7.20;99.90;;;;;;5025119;28;20049;-58
2023/05/04 05:00:44;;;;;;;16.58;7.70;;;7.20;99.90;;;;;;5001586;28;20133;-61
2023/05/04 05:03:12;;;;;;;22.05;8.43;;;7.20;99.90;;;;;;4998417;28;20056;-59
2023/05/04 05:05:40;;;;;;;18.58;8.15;;;7.30;99.90;;;;;;5007192;28;20528;-59
2023/05/04 05:08:08;;;;;;;23.25;9.18;;;7.30;99.90;;;;;;5020558;28;20049;-60
2023/05/04 05:10:36;;;;;;;15.90;7.78;;;7.30;99.90;;;;;;5026097;28;20049;-61
2023/05/04 05:13:04;;;;;;;19.25;8.20;;;7.30;99.90;;;;;;5023698;28;20960;-60
2023/05/04 05:15:31;;;;;;;17.40;7.50;;;7.40;99.90;;;;;;5011899;28;20046;-60
2023/05/04 05:17:59;;;;;;;21.45;7.90;;;7.40;99.90;;;;;;5025403;28;20046;-59
2023/05/04 05:20:27;;;;;;;18.50;7.38;;;7.50;99.90;;;;;;5014290;28;20562;-60
2023/05/04 05:22:54;;;;;;;25.92;8.35;;;7.50;99.90;;;;;;5022747;28;20044;-59
2023/05/04 05:25:22;;;;;;;18.52;7.95;;;7.50;99.90;;;;;;5011219;28;20060;-58
2023/05/04 05:27:49;;;;;;;19.33;9.10;;;7.60;99.90;;;;;;5016300;28;20042;-61
2023/05/04 05:30:17;;;;;;;22.73;7.55;;;7.60;99.90;;;;;;5024844;28;20060;-59
2023/05/04 05:32:45;;;;;;;19.27;7.45;;;7.60;99.90;;;;;;5020063;28;20050;-59
2023/05/04 05:35:16;;;;;;;18.80;7.85;;;7.70;99.90;;;;;;5024476;28;20068;-60
2023/05/04 05:37:43;;;;;;;16.08;7.82;;;7.70;99.90;;;;;;5024221;28;20500;-61
2023/05/04 05:40:14;;;;;;;17.65;8.15;;;7.80;99.90;;;;;;5024254;28;20489;-60
2023/05/04 05:42:42;;;;;;;18.92;7.80;;;7.80;99.90;;;;;;5024153;28;20384;-60
2023/05/04 05:45:12;;;;;;;17.23;7.32;;;7.90;99.90;;;;;;5006280;28;20049;-59
2023/05/04 05:47:40;;;;;;;12.85;7.90;;;7.90;99.90;;;;;;5026055;28;20389;-60
2023/05/04 05:50:08;;;;;;;16.05;7.85;;;8.00;99.90;;;;;;5028554;28;20033;-59
2023/05/04 05:52:36;;;;;;;17.90;7.20;;;8.00;99.90;;;;;;5017298;28;20814;-60
2023/05/04 05:55:04;;;;;;;17.90;7.68;;;8.10;99.90;;;;;;5008474;28;20034;-58
2023/05/04 05:57:32;;;;;;;15.57;7.50;;;8.00;99.90;;;;;;5014250;28;20061;-59
2023/05/04 06:00:04;;;;;;;21.55;7.97;;;8.10;99.90;;;;;;5009044;28;20050;-60
2023/05/04 06:02:38;;;;;;;16.35;7.82;;;8.10;99.90;;;;;;5020398;28;20053;-61
2023/05/04 06:05:07;;;;;;;28.38;8.52;;;8.20;99.90;;;;;;5019274;28;20050;-59
2023/05/04 06:07:34;;;;;;;23.52;9.23;;;8.20;99.90;;;;;;5020188;28;20073;-60
2023/05/04 06:10:03;;;;;;;19.25;7.32;;;8.30;99.90;;;;;;5005017;28;20053;-58
2023/05/04 06:12:31;;;;;;;15.25;7.40;;;8.30;99.90;;;;;;5007715;28;20058;-59
2023/05/04 06:14:59;;;;;;;23.50;7.75;;;8.30;99.90;;;;;;5027110;28;20052;-60
2023/05/04 06:17:26;;;;;;;21.27;7.43;;;8.40;99.90;;;;;;5023897;28;20054;-59
2023/05/04 06:19:54;;;;;;;15.65;8.20;;;8.40;99.90;;;;;;5014598;28;20060;-60
2023/05/04 06:22:21;;;;;;;18.33;7.78;;;8.40;99.90;;;;;;5027642;28;20087;-60
2023/05/04 06:24:50;;;;;;;22.65;7.93;;;8.50;99.90;;;;;;5006142;28;20049;-61
2023/05/04 06:27:17;;;;;;;17.95;8.45;;;8.50;99.90;;;;;;5007083;28;20053;-58
2023/05/04 06:29:45;;;;;;;22.95;7.90;;;8.50;99.90;;;;;;5024483;28;20072;-61
2023/05/04 06:32:13;;;;;;;16.50;7.55;;;8.50;99.90;;;;;;5023023;28;20053;-60
2023/05/04 06:34:41;;;;;;;20.10;7.85;;;8.60;99.90;;;;;;5024693;28;20404;-60
2023/05/04 06:37:10;;;;;;;20.23;8.18;;;8.60;99.90;;;;;;5025922;28;20522;-59
2023/05/04 06:39:42;;;;;;;22.15;8.27;;;8.60;99.90;;;;;;5008289;28;20046;-59
2023/05/04 06:42:11;;;;;;;17.55;8.35;;;8.70;99.90;;;;;;5026657;28;20056;-58
2023/05/04 06:44:40;;;;;;;19.67;8.90;;;8.70;99.90;;;;;;4993730;28;20038;-59
2023/05/04 06:47:08;;;;;;;22.40;9.75;;;8.80;99.90;;;;;;5023039;28;20166;-60
2023/05/04 06:49:36;;;;;;;13.73;8.30;;;8.80;99.90;;;;;;4994723;28;20050;-61
2023/05/04 06:52:04;;;;;;;23.13;9.68;;;8.90;99.90;;;;;;5029142;28;20049;-59
2023/05/04 06:54:34;;;;;;;18.60;8.68;;;8.90;99.90;;;;;;4994615;28;20050;-60
2023/05/04 06:57:02;;;;;;;24.25;9.50;;;8.80;99.90;;;;;;5026872;28;20061;-59
2023/05/04 06:59:30;;;;;;;19.92;8.40;;;8.90;99.90;;;;;;5021334;28;20049;-60
2023/05/04 07:01:57;;;;;;;30.00;10.27;;;8.90;99.90;;;;;;5027864;28;20049;-61
2023/05/04 07:04:25;;;;;;;19.48;8.73;;;8.90;99.90;;;;;;5010152;28;20045;-61
2023/05/04 07:06:53;;;;;;;22.08;8.27;;;9.00;99.90;;;;;;5029138;28;20057;-61
2023/05/04 07:09:21;;;;;;;16.75;8.50;;;9.00;99.90;;;;;;5030919;28;20045;-59
2023/05/04 07:11:52;;;;;;;25.45;8.10;;;9.10;99.90;;;;;;5031420;28;20064;-60
2023/05/04 07:14:20;;;;;;;27.23;8.73;;;9.10;99.90;;;;;;5019715;28;20042;-62
2023/05/04 07:16:48;;;;;;;22.13;8.65;;;9.20;99.90;;;;;;5024218;28;20061;-59
2023/05/04 07:19:16;;;;;;;20.85;7.63;;;9.30;99.90;;;;;;5009026;28;20046;-58
2023/05/04 07:21:44;;;;;;;20.42;9.00;;;9.30;99.90;;;;;;5023144;28;20680;-61
2023/05/04 07:24:12;;;;;;;17.40;8.38;;;9.40;99.90;;;;;;5011901;28;20046;-58
2023/05/04 07:26:39;;;;;;;18.85;8.48;;;9.50;99.90;;;;;;5010452;28;20046;-59
2023/05/04 07:29:08;;;;;;;24.23;8.43;;;9.60;99.90;;;;;;5020811;28;20045;-62
2023/05/04 07:31:37;;;;;;;17.10;8.02;;;9.60;99.90;;;;;;5010997;28;20050;-61
2023/05/04 07:34:07;;;;;;;17.20;8.73;;;9.70;99.90;;;;;;5012479;28;20048;-59
2023/05/04 07:36:35;;;;;;;15.18;7.63;;;9.80;99.90;;;;;;5013594;28;20286;-60
2023/05/04 07:39:03;;;;;;;20.58;7.47;;;9.80;99.90;;;;;;5029617;28;20052;-59
2023/05/04 07:41:31;;;;;;;24.48;9.35;;;9.90;99.90;;;;;;5031097;28;20052;-61
2023/05/04 07:43:59;;;;;;;15.07;7.53;;;10.00;99.90;;;;;;5028057;28;20044;-60
2023/05/04 07:46:27;;;;;;;17.30;8.18;;;10.10;99.90;;;;;;5023801;28;20046;-61
2023/05/04 07:48:56;;;;;;;17.20;7.67;;;10.00;99.90;;;;;;5025659;28;20064;-62
2023/05/04 07:51:24;;;;;;;21.15;8.90;;;10.20;99.90;;;;;;5030635;28;20645;-61
2023/05/04 07:53:52;;;;;;;18.10;8.27;;;10.10;99.90;;;;;;5030344;28;20053;-60
2023/05/04 07:56:20;;;;;;;15.48;7.57;;;10.30;99.90;;;;;;5018378;28;20053;-62
2023/05/04 07:58:47;;;;;;;14.48;7.10;;;10.30;99.90;;;;;;5013953;28;20295;-61
2023/05/04 08:01:15;;;;;;;22.85;8.85;;;10.40;99.90;;;;;;4996344;28;20500;-61
2023/05/04 08:03:44;;;;;;;23.17;8.68;;;10.50;99.90;;;;;;5017791;28;20504;-59
2023/05/04 08:06:12;;;;;;;20.55;7.88;;;10.60;99.90;;;;;;4993336;28;20048;-62
2023/05/04 08:08:40;;;;;;;14.50;7.63;;;10.70;99.90;;;;;;5025629;28;20073;-61
2023/05/04 08:11:13;;;;;;;26.33;8.00;;;10.80;99.90;;;;;;5030212;28;20045;-61
2023/05/04 08:13:49;;;;;;;18.25;8.07;;;10.90;99.90;;;;;;5028701;28;20049;-60
2023/05/04 08:16:17;;;;;;;14.17;7.00;;;11.10;99.90;;;;;;5030512;28;20053;-61
2023/05/04 08:18:44;;;;;;;16.95;8.07;;;11.20;99.90;;;;;;5028362;28;20302;-62
2023/05/04 08:21:12;;;;;;;18.90;8.20;;;11.30;99.90;;;;;;5000691;28;20488;-60
2023/05/04 08:23:39;;;;;;;17.13;7.72;;;11.40;99.90;;;;;;5023806;28;20531;-64
2023/05/04 08:26:07;;;;;;;16.95;6.90;;;11.50;99.90;;;;;;5027617;28;20053;-61
2023/05/04 08:28:38;;;;;;;14.48;7.95;;;11.60;99.90;;;;;;5018840;28;20370;-63
2023/05/04 08:31:06;;;;;;;14.60;7.35;;;11.60;99.90;;;;;;5024835;28;20068;-62
2023/05/04 08:33:34;;;;;;;23.77;6.85;;;11.70;99.90;;;;;;5004573;28;20049;-61
2023/05/04 08:36:06;;;;;;;20.73;6.95;;;11.70;99.90;;;;;;5019240;28;20048;-59
2023/05/04 08:38:34;;;;;;;13.68;6.63;;;11.70;99.90;;;;;;5017565;28;20053;-60
2023/05/04 08:41:06;;;;;;;15.63;6.72;;;11.70;99.90;;;;;;4997672;28;20042;-60
2023/05/04 08:43:35;;;;;;;14.10;6.90;;;11.80;99.90;;;;;;5004735;28;20049;-61
2023/05/04 08:46:05;;;;;;;17.27;6.72;;;11.90;99.90;;;;;;5029689;28;20037;-60
2023/05/04 08:48:43;;;;;;;15.48;6.72;;;12.00;99.90;;;;;;4977294;28;20050;-63
2023/05/04 08:51:12;;;;;;;19.55;7.68;;;12.00;99.90;;;;;;5009851;28;20061;-60
2023/05/04 08:53:44;;;;;;;17.17;7.60;;;12.10;99.90;;;;;;5019559;28;20049;-60
2023/05/04 08:56:13;;;;;;;24.40;6.80;;;12.30;99.90;;;;;;5009014;28;20053;-59
2023/05/04 08:58:51;;;;;;;13.40;6.68;;;12.30;99.90;;;;;;5011015;28;20409;-60
2023/05/04 09:01:20;;;;;;;16.17;6.47;;;12.60;99.90;;;;;;5005346;28;20385;-60
2023/05/04 09:03:50;;;;;;;17.30;6.63;;;12.40;99.90;;;;;;5016780;28;20041;-60
2023/05/04 09:06:18;;;;;;;21.27;8.05;;;12.40;99.90;;;;;;5015916;28;20042;-60
2023/05/04 09:08:46;;;;;;;22.52;8.38;;;12.50;99.90;;;;;;4996516;28;20065;-60
2023/05/04 09:11:14;;;;;;;20.17;6.85;;;12.60;99.90;;;;;;5023178;28;20392;-60
2023/05/04 09:13:42;;;;;;;22.25;7.38;;;12.60;99.90;;;;;;5027454;28;20060;-60
2023/05/04 09:16:10;;;;;;;16.55;6.45;;;12.60;99.90;;;;;;5011453;28;20049;-61
2023/05/04 09:18:43;;;;;;;25.40;9.07;;;12.60;99.90;;;;;;5021426;28;20393;-61
2023/05/04 09:21:11;;;;;;;17.63;7.68;;;12.70;99.90;;;;;;5027959;28;20053;-62
2023/05/04 09:23:49;;;;;;;21.08;6.68;;;12.70;99.90;;;;;;5025808;28;20049;-61
2023/05/04 09:26:30;;;;;;;19.03;7.67;;;12.70;99.90;;;;;;4995263;28;20056;-58
2023/05/04 09:29:09;;;;;;;;;;;12.80;99.90;;;;;;5020645;28;21170;-60
2023/05/04 09:31:47;;;;;;;15.65;7.07;;;12.80;99.90;;;;;;5025293;28;20427;-61
2023/05/04 09:34:15;;;;;;;20.38;8.73;;;12.90;99.90;;;;;;5010110;28;20049;-61
2023/05/04 09:36:43;;;;;;;20.58;7.53;;;13.10;99.90;;;;;;5014759;28;20056;-62
2023/05/04 09:39:12;;;;;;;15.07;7.72;;;13.20;99.90;;;;;;5027209;28;20476;-62
2023/05/04 09:41:40;;;;;;;21.88;8.68;;;13.30;99.90;;;;;;5014657;28;20159;-63
2023/05/04 09:44:23;;;;;;;13.57;7.25;;;13.40;99.90;;;;;;5020184;28;20517;-62
2023/05/04 09:46:55;;;;;;;18.52;7.65;;;13.50;99.90;;;;;;5025540;28;20048;-63
2023/05/04 09:49:33;;;;;;;15.98;7.28;;;13.60;99.90;;;;;;5022085;28;20053;-63
2023/05/04 09:52:03;;;;;;;16.67;7.65;;;13.60;99.90;;;;;;5015707;28;20046;-60
2023/05/04 09:54:34;;;;;;;19.35;8.00;;;13.80;99.90;;;;;;4995703;28;20041;-60
2023/05/04 09:57:22;;;;;;;17.88;8.20;;;13.70;99.90;;;;;;5028417;28;20061;-59
2023/05/04 09:59:51;;;;;;;15.40;7.43;;;13.90;99.90;;;;;;5007187;28;20049;-60
2023/05/04 10:02:19;;;;;;;18.98;7.05;;;14.00;99.90;;;;;;5020406;28;20057;-59
2023/05/04 10:04:51;;;;;;;14.18;7.15;;;14.20;99.90;;;;;;5015076;28;20045;-60
2023/05/04 10:07:19;;;;;;;19.47;6.40;;;14.40;99.90;;;;;;5025747;28;20064;-60
2023/05/04 10:09:48;;;;;;;22.17;7.53;;;;;;;;;;5000756;28;20287;-59
2023/05/04 10:12:16;;;;;;;15.55;8.13;;;14.80;99.90;;;;;;5010333;28;20038;-61
2023/05/04 10:14:45;;;;;;;24.63;7.65;;;14.90;99.90;;;;;;5027093;28;20517;-60
2023/05/04 10:17:13;;;;;;;22.67;8.75;;;15.00;99.90;;;;;;5026273;28;20045;-62
2023/05/04 10:19:58;;;;;;;19.00;7.28;;;15.10;99.90;;;;;;5025659;28;20049;-60
2023/05/04 10:22:40;;;;;;;17.33;7.35;;;15.20;99.90;;;;;;5027544;28;20488;-61
2023/05/04 10:25:26;;;;;;;20.52;6.85;;;15.30;99.90;;;;;;5026906;28;20065;-61
2023/05/04 10:28:18;;;;;;;23.13;7.18;;;15.50;99.90;;;;;;5010311;28;20046;-61
2023/05/04 10:30:45;;;;;;;16.50;6.63;;;15.60;99.90;;;;;;5020359;28;20052;-60
2023/05/04 10:33:13;;;;;;;13.90;6.78;;;15.90;99.90;;;;;;5008322;28;20046;-59
2023/05/04 10:35:53;;;;;;;19.17;7.18;;;15.80;99.90;;;;;;5022736;28;20045;-61
2023/05/04 10:38:51;;;;;;;14.80;6.68;;;15.90;99.90;;;;;;4991337;28;20053;-60
2023/05/04 10:41:22;;;;;;;14.32;6.78;;;16.10;99.90;;;;;;4992199;28;20054;-62
2023/05/04 10:43:52;;;;;;;17.55;5.95;;;16.20;99.90;;;;;;5021977;28;20038;-60
2023/05/04 10:46:21;;;;;;;19.52;7.35;;;16.30;99.90;;;;;;5009167;28;20513;-60
2023/05/04 10:48:50;;;;;;;16.15;7.13;;;15.60;99.90;;;;;;5011875;28;20050;-59
2023/05/04 10:51:25;;;;;;;18.45;7.65;;;16.40;99.90;;;;;;5028025;28;20041;-61
2023/05/04 10:54:17;;;;;;;14.68;6.82;;;16.40;99.90;;;;;;5016118;28;20058;-63
2023/05/04 10:56:45;;;;;;;17.90;6.25;;;16.40;99.90;;;;;;4974282;28;20041;-61
2023/05/04 10:59:13;;;;;;;13.30;6.85;;;16.40;99.90;;;;;;5015219;28;20044;-61
2023/05/04 11:01:44;;;;;;;15.30;6.97;;;16.30;99.90;;;;;;5007685;28;20516;-62
2023/05/04 11:04:19;;;;;;;13.70;7.18;;;16.20;99.90;;;;;;5025840;28;20057;-61
2023/05/04 11:07:04;;;;;;;18.63;7.63;;;16.20;99.90;;;;;;5027452;28;20485;-61
2023/05/04 11:09:40;;;;;;;15.70;7.78;;;16.10;99.90;;;;;;5022197;28;20493;-61
2023/05/04 11:12:09;;;;;;;12.38;6.88;;;16.10;99.90;;;;;;5011441;28;20054;-60
2023/05/04 11:14:41;;;;;;;17.63;7.13;;;16.10;99.90;;;;;;5002425;28;20064;-61
2023/05/04 11:17:13;;;;;;;22.30;7.20;;;16.10;99.90;;;;;;5027694;28;20065;-62
2023/05/04 11:19:51;;;;;;;11.82;7.10;;;16.30;99.90;;;;;;5021725;28;20490;-61
2023/05/04 11:22:19;;;;;;;10.75;6.35;;;16.60;99.90;;;;;;5025063;28;20060;-61
2023/05/04 11:24:50;;;;;;;16.75;6.85;;;16.60;99.90;;;;;;5027450;28;20054;-60
2023/05/04 11:27:27;;;;;;;17.67;6.53;;;16.60;99.90;;;;;;5023678;28;20038;-61
2023/05/04 11:29:59;;;;;;;19.83;6.07;;;16.70;99.90;;;;;;5020492;28;20500;-62
2023/05/04 11:32:34;;;;;;;21.02;7.60;;;16.90;99.90;;;;;;5020914;28;20054;-63
2023/05/04 11:35:06;;;;;;;16.27;7.43;;;16.90;99.90;;;;;;5022646;28;20067;-61
2023/05/04 11:37:41;;;;;;;15.15;7.10;;;16.90;99.90;;;;;;5026089;28;20046;-60
2023/05/04 11:40:12;;;;;;;16.02;6.80;;;17.00;99.90;;;;;;5028427;28;20064;-61
2023/05/04 11:42:43;;;;;;;13.18;6.22;;;17.00;99.90;;;;;;5026910;28;20049;-63
2023/05/04 11:45:20;;;;;;;13.15;6.40;;;17.10;99.90;;;;;;5014753;28;20052;-62
2023/05/04 11:47:49;;;;;;;12.15;5.97;;;17.30;99.90;;;;;;5010608;28;20064;-61
2023/05/04 11:50:19;;;;;;;18.52;6.43;;;17.40;99.90;;;;;;5011202;28;20393;-62
2023/05/04 11:52:48;;;;;;;16.85;6.55;;;17.60;99.90;;;;;;5010671;28;20046;-61
2023/05/04 11:55:27;;;;;;;11.63;5.75;;;17.50;99.20;;;;;;4994165;28;20049;-62
2023/05/04 11:58:07;;;;;;;13.80;6.80;;;17.50;99.90;;;;;;5021273;28;20049;-61
2023/05/04 12:00:37;;;;;;;14.68;6.45;;;17.40;99.90;;;;;;5026274;28;20072;-65
2023/05/04 12:03:11;;;;;;;17.17;5.28;;;17.40;99.90;;;;;;5018663;28;20034;-60
2023/05/04 12:05:56;;;;;;;14.43;5.20;;;17.40;99.90;;;;;;5010736;28;20053;-63
2023/05/04 12:08:33;;;;;;;16.65;5.70;;;17.50;99.90;;;;;;4999687;28;20442;-62
2023/05/04 12:11:11;;;;;;;14.93;6.10;;;17.50;99.90;;;;;;5010811;28;20049;-61
2023/05/04 12:13:40;;;;;;;20.45;5.82;;;17.60;99.90;;;;;;5017594;28;20044;-62
2023/05/04 12:16:08;;;;;;;17.20;5.88;;;17.90;99.90;;;;;;5022886;28;20469;-61
2023/05/04 12:18:36;;;;;;;13.77;5.15;;;18.40;98.80;;;;;;5022795;28;20073;-61
2023/05/04 12:21:18;;;;;;;14.55;6.00;;;18.40;99.10;;;;;;5024917;28;20041;-62
2023/05/04 12:23:46;;;;;;;16.05;5.47;;;18.70;98.50;;;;;;5022646;28;20424;-62
2023/05/04 12:26:14;;;;;;;14.80;4.57;;;19.00;97.30;;;;;;5026496;28;20050;-62
2023/05/04 12:28:46;;;;;;;9.82;4.35;;;19.40;95.80;;;;;;5010664;28;20611;-60
2023/05/04 12:31:13;;;;;;;16.98;5.03;;;20.30;95.60;;;;;;5028901;28;20404;-61
2023/05/04 12:33:41;;;;;;;15.32;5.40;;;20.30;93.70;;;;;;5022143;28;20057;-60
2023/05/04 12:36:09;;;;;;;16.88;4.03;;;20.70;92.70;;;;;;5022827;28;20519;-63
2023/05/04 12:38:37;;;;;;;15.68;5.35;;;21.00;90.50;;;;;;5016553;28;20045;-64
2023/05/04 12:41:09;;;;;;;20.00;5.15;;;21.20;89.70;;;;;;5003128;28;20068;-62
2023/05/04 12:43:37;;;;;;;12.93;4.53;;;21.20;88.50;;;;;;5024130;28;20067;-62
2023/05/04 12:46:06;;;;;;;13.07;5.82;;;21.00;87.30;;;;;;5027952;28;20033;-62
2023/05/04 12:48:33;;;;;;;8.18;3.97;;;20.60;89.30;;;;;;5032058;28;20056;-62
2023/05/04 12:51:05;;;;;;;16.70;4.63;;;20.20;90.50;;;;;;5029610;28;20044;-61
2023/05/04 12:53:33;;;;;;;9.98;3.67;;;19.90;90.60;;;;;;5028417;28;20054;-62
2023/05/04 12:56:04;;;;;;;9.52;3.92;;;19.90;90.10;;;;;;5006082;28;20030;-61
2023/05/04 12:58:32;;;;;;;10.27;4.43;;;19.90;91.00;;;;;;5017829;28;20045;-62
2023/05/04 13:01:00;;;;;;;19.05;3.95;;;20.00;90.80;;;;;;5019364;28;20049;-62